createdAt,value
2023-03-11T00:00:23.596Z,3.03
2023-03-11T00:02:52.272Z,2.50
2023-03-11T00:05:29.463Z,2.68
2023-03-11T00:07:56.655Z,2.66
2023-03-11T00:10:30.345Z,2.73
2023-03-11T00:12:58.807Z,3.05
2023-03-11T00:15:26.968Z,2.76
2023-03-11T00:17:53.610Z,2.67
2023-03-11T00:20:23.807Z,3.01
2023-03-11T00:22:53.508Z,3.93
2023-03-11T00:25:22.481Z,3.33
2023-03-11T00:27:49.318Z,3.53
2023-03-11T00:30:17.589Z,3.49
2023-03-11T00:32:48.080Z,3.42
2023-03-11T00:35:18.125Z,3.26
2023-03-11T00:37:47.423Z,3.27
2023-03-11T00:40:17.400Z,3.30
2023-03-11T00:42:44.796Z,3.34
2023-03-11T00:45:12.302Z,3.31
2023-03-11T00:47:39.152Z,3.33
2023-03-11T00:50:07.026Z,3.27
2023-03-11T00:52:33.762Z,3.24
2023-03-11T00:55:00.358Z,3.10
2023-03-11T00:57:29.105Z,3.24
2023-03-11T00:59:56.679Z,3.20
2023-03-11T01:02:23.433Z,3.15
2023-03-11T01:04:55.538Z,3.15
2023-03-11T01:07:22.751Z,3.20
2023-03-11T01:09:49.417Z,3.03
2023-03-11T01:12:16.291Z,2.34
2023-03-11T01:14:42.904Z,2.27
2023-03-11T01:17:09.649Z,2.23
2023-03-11T01:19:36.258Z,2.47
2023-03-11T01:22:02.849Z,2.85
2023-03-11T01:24:29.446Z,3.06
2023-03-11T01:26:56.076Z,2.72
2023-03-11T01:29:22.669Z,2.32
2023-03-11T01:31:49.228Z,2.19
2023-03-11T01:34:15.801Z,2.22
2023-03-11T01:36:42.385Z,2.49
2023-03-11T01:39:08.984Z,2.25
2023-03-11T01:41:35.610Z,2.50
2023-03-11T01:44:04.090Z,2.73
2023-03-11T01:46:36.611Z,2.47
2023-03-11T01:49:05.344Z,2.32
2023-03-11T01:51:37.513Z,2.35
2023-03-11T01:54:11.406Z,2.23
2023-03-11T01:56:40.139Z,2.44
2023-03-11T01:59:09.492Z,2.40
2023-03-11T02:01:46.507Z,2.59
2023-03-11T02:04:14.079Z,2.27
2023-03-11T02:06:40.740Z,2.39
2023-03-11T02:09:07.372Z,2.54
2023-03-11T02:11:34.548Z,2.32
2023-03-11T02:14:06.162Z,2.25
2023-03-11T02:16:33.213Z,2.32
2023-03-11T02:19:29.393Z,2.36
2023-03-11T02:21:57.114Z,2.64
2023-03-11T02:24:50.413Z,2.12
2023-03-11T02:27:19.326Z,2.28
2023-03-11T02:29:49.756Z,2.16
2023-03-11T02:32:17.251Z,2.25
2023-03-11T02:34:44.577Z,2.53
2023-03-11T02:37:14.973Z,2.44
2023-03-11T02:39:45.651Z,2.30
2023-03-11T02:42:24.594Z,1.88
2023-03-11T02:45:05.605Z,2.23
2023-03-11T02:47:34.720Z,2.27
2023-03-11T02:50:01.602Z,2.48
2023-03-11T02:52:29.211Z,2.53
2023-03-11T02:54:55.783Z,2.50
2023-03-11T02:57:22.391Z,2.14
2023-03-11T02:59:48.991Z,2.01
2023-03-11T03:02:15.897Z,2.16
2023-03-11T03:04:42.474Z,2.15
2023-03-11T03:07:09.201Z,2.09
2023-03-11T03:09:36.700Z,2.08
2023-03-11T03:12:04.504Z,1.94
2023-03-11T03:14:31.673Z,1.97
2023-03-11T03:16:59.332Z,2.25
2023-03-11T03:19:26.050Z,2.25
2023-03-11T03:21:52.665Z,2.18
2023-03-11T03:24:19.289Z,2.14
2023-03-11T03:26:45.888Z,1.93
2023-03-11T03:29:12.479Z,2.46
2023-03-11T03:31:39.128Z,2.54
2023-03-11T03:34:05.754Z,2.31
2023-03-11T03:36:32.352Z,2.29
2023-03-11T03:38:59.698Z,2.39
2023-03-11T03:41:26.384Z,2.18
2023-03-11T03:43:54.679Z,2.30
2023-03-11T03:46:22.421Z,2.19
2023-03-11T03:48:49.081Z,2.06
2023-03-11T03:51:16.360Z,2.35
2023-03-11T03:53:43.685Z,2.12
2023-03-11T03:56:12.997Z,2.17
2023-03-11T03:58:39.666Z,2.10
2023-03-11T04:01:07.517Z,1.92
2023-03-11T04:03:35.294Z,1.94
2023-03-11T04:06:17.647Z,2.07
2023-03-11T04:08:44.333Z,2.29
2023-03-11T04:11:12.990Z,2.00
2023-03-11T04:13:39.795Z,2.09
2023-03-11T04:16:07.859Z,2.36
2023-03-11T04:18:35.388Z,2.38
2023-03-11T04:21:06.278Z,2.14
2023-03-11T04:23:33.385Z,1.99
2023-03-11T04:26:00.546Z,2.18
2023-03-11T04:28:27.479Z,2.14
2023-03-11T04:30:54.151Z,2.25
2023-03-11T04:33:20.963Z,2.10
2023-03-11T04:35:47.532Z,2.14
2023-03-11T04:38:14.245Z,2.15
2023-03-11T04:40:40.865Z,2.06
2023-03-11T04:43:07.620Z,1.97
2023-03-11T04:45:34.280Z,2.00
2023-03-11T04:48:00.861Z,1.85
2023-03-11T04:50:27.447Z,1.95
2023-03-11T04:52:54.100Z,2.06
2023-03-11T04:55:20.666Z,2.21
2023-03-11T04:57:47.325Z,1.93
2023-03-11T05:00:15.778Z,2.09
2023-03-11T05:02:42.789Z,1.88
2023-03-11T05:05:10.224Z,1.98
2023-03-11T05:07:37.403Z,1.91
2023-03-11T05:10:05.351Z,2.21
2023-03-11T05:12:32.362Z,2.02
2023-03-11T05:14:58.921Z,1.90
2023-03-11T05:17:25.542Z,1.84
2023-03-11T05:19:53.639Z,1.98
2023-03-11T05:22:21.306Z,1.92
2023-03-11T05:24:48.138Z,2.23
2023-03-11T05:27:17.911Z,1.99
2023-03-11T05:29:45.217Z,1.99
2023-03-11T05:32:13.101Z,2.11
2023-03-11T05:34:39.777Z,2.00
2023-03-11T05:37:06.557Z,2.01
2023-03-11T05:39:34.225Z,2.20
2023-03-11T05:42:01.144Z,1.89
2023-03-11T05:44:27.821Z,1.78
2023-03-11T05:46:54.569Z,2.65
2023-03-11T05:49:21.638Z,2.08
2023-03-11T05:51:49.302Z,2.07
2023-03-11T05:54:16.446Z,2.05
2023-03-11T05:56:45.290Z,2.07
2023-03-11T05:59:16.227Z,2.13
2023-03-11T06:01:44.297Z,2.03
2023-03-11T06:04:11.416Z,2.29
2023-03-11T06:06:41.023Z,2.92
2023-03-11T06:09:11.108Z,2.43
2023-03-11T06:11:37.732Z,2.36
2023-03-11T06:14:04.331Z,2.42
2023-03-11T06:16:31.419Z,2.76
2023-03-11T06:19:00.654Z,2.77
2023-03-11T06:21:27.400Z,2.50
2023-03-11T06:23:54.217Z,2.68
2023-03-11T06:26:23.417Z,2.99
2023-03-11T06:28:51.905Z,3.45
2023-03-11T06:31:25.287Z,2.97
2023-03-11T06:33:52.330Z,2.88
2023-03-11T06:36:20.282Z,2.79
2023-03-11T06:38:48.365Z,2.16
2023-03-11T06:41:15.350Z,2.10
2023-03-11T06:43:42.510Z,1.83
2023-03-11T06:46:15.491Z,2.03
2023-03-11T06:48:42.728Z,2.04
2023-03-11T06:51:10.514Z,1.88
2023-03-11T06:53:37.183Z,2.00
2023-03-11T06:56:07.542Z,1.92
2023-03-11T06:58:36.062Z,2.00
2023-03-11T07:01:06.384Z,2.49
2023-03-11T07:03:32.967Z,2.37
2023-03-11T07:06:00.346Z,2.53
2023-03-11T07:08:27.813Z,2.63
2023-03-11T07:11:07.199Z,2.67
2023-03-11T07:13:35.177Z,2.80
2023-03-11T07:16:08.578Z,2.59
2023-03-11T07:18:36.388Z,2.66
2023-03-11T07:21:04.910Z,2.25
2023-03-11T07:23:31.720Z,2.14
2023-03-11T07:25:59.140Z,2.04
2023-03-11T07:28:27.817Z,2.22
2023-03-11T07:30:55.264Z,2.30
2023-03-11T07:33:24.078Z,2.02
2023-03-11T07:35:51.282Z,2.05
2023-03-11T07:38:18.105Z,1.90
2023-03-11T07:40:44.741Z,1.88
2023-03-11T07:43:11.570Z,1.80
2023-03-11T07:45:38.256Z,1.77
2023-03-11T07:48:05.245Z,1.84
2023-03-11T07:50:31.906Z,1.94
2023-03-11T07:52:58.493Z,1.88
2023-03-11T07:55:25.125Z,2.05
2023-03-11T07:57:51.719Z,1.72
2023-03-11T08:00:19.080Z,1.73
2023-03-11T08:02:45.823Z,1.79
2023-03-11T08:05:12.574Z,1.84
2023-03-11T08:07:39.346Z,1.73
2023-03-11T08:10:06.779Z,1.82
2023-03-11T08:12:33.551Z,1.84
2023-03-11T08:15:00.185Z,1.91
2023-03-11T08:17:26.776Z,1.83
2023-03-11T08:19:53.541Z,1.82
2023-03-11T08:22:20.485Z,2.04
2023-03-11T08:24:51.919Z,1.77
2023-03-11T08:27:18.956Z,1.98
2023-03-11T08:29:45.501Z,1.91
2023-03-11T08:32:12.225Z,1.53
2023-03-11T08:34:39.538Z,1.56
2023-03-11T08:37:06.804Z,1.59
2023-03-11T08:39:33.404Z,1.82
2023-03-11T08:42:00.323Z,1.80
2023-03-11T08:44:26.967Z,1.57
2023-03-11T08:46:53.665Z,1.62
2023-03-11T08:49:20.361Z,1.73
2023-03-11T08:51:46.963Z,1.68
2023-03-11T08:54:13.548Z,1.69
2023-03-11T08:56:40.325Z,1.15
2023-03-11T08:59:08.475Z,1.14
2023-03-11T09:01:35.207Z,1.43
2023-03-11T09:04:01.920Z,1.20
2023-03-11T09:06:30.337Z,1.43
2023-03-11T09:08:57.832Z,1.18
2023-03-11T09:11:25.040Z,1.29
2023-03-11T09:13:51.900Z,1.15
2023-03-11T09:16:21.750Z,1.27
2023-03-11T09:18:48.709Z,1.39
2023-03-11T09:21:15.438Z,1.19
2023-03-11T09:23:44.205Z,1.32
2023-03-11T09:26:12.073Z,1.29
2023-03-11T09:28:39.203Z,1.56
2023-03-11T09:31:05.970Z,1.69
2023-03-11T09:33:37.516Z,2.04
2023-03-11T09:36:04.524Z,1.65
2023-03-11T09:38:31.112Z,1.87
2023-03-11T09:41:17.920Z,1.74
2023-03-11T09:43:56.370Z,1.54
2023-03-11T09:46:32.180Z,1.33
2023-03-11T09:49:47.091Z,1.97
2023-03-11T09:52:16.476Z,1.68
2023-03-11T09:54:48.089Z,1.53
2023-03-11T09:57:21.329Z,1.74
2023-03-11T09:59:48.698Z,1.98
2023-03-11T10:02:19.771Z,1.59
2023-03-11T10:05:03.058Z,1.66
2023-03-11T10:07:40.125Z,1.49
2023-03-11T10:10:13.463Z,1.61
2023-03-11T10:13:10.706Z,1.43
2023-03-11T10:16:00.730Z,1.57
2023-03-11T10:18:36.483Z,1.39
2023-03-11T10:21:25.758Z,1.60
2023-03-11T10:24:30.123Z,1.55
2023-03-11T10:27:08.466Z,1.85
2023-03-11T10:30:04.059Z,1.79
2023-03-11T10:32:49.613Z,1.57
2023-03-11T10:35:34.166Z,1.53
2023-03-11T10:38:13.194Z,1.57
2023-03-11T10:40:42.231Z,1.45
2023-03-11T10:43:25.144Z,1.53
2023-03-11T10:45:53.196Z,1.81
2023-03-11T10:48:21.745Z,1.74
2023-03-11T10:51:15.728Z,1.77
2023-03-11T10:54:03.448Z,2.06
2023-03-11T10:56:36.185Z,1.90
2023-03-11T10:59:06.231Z,1.73
2023-03-11T11:01:33.653Z,1.83
2023-03-11T11:04:02.418Z,1.64
2023-03-11T11:06:35.160Z,1.69
2023-03-11T11:09:17.805Z,1.80
2023-03-11T11:12:05.764Z,1.62
2023-03-11T11:14:48.634Z,1.81
2023-03-11T11:17:34.244Z,2.52
2023-03-11T11:20:12.999Z,1.74
2023-03-11T11:22:50.687Z,1.84
2023-03-11T11:25:28.136Z,2.26
2023-03-11T11:27:58.265Z,1.73
2023-03-11T11:30:26.782Z,1.70
2023-03-11T11:32:55.458Z,1.68
2023-03-11T11:35:25.117Z,1.56
2023-03-11T11:38:01.461Z,1.71
2023-03-11T11:40:32.940Z,1.42
2023-03-11T11:43:05.828Z,1.56
2023-03-11T11:45:41.367Z,1.55
2023-03-11T11:48:26.876Z,1.66
2023-03-11T11:51:01.361Z,1.49
2023-03-11T11:53:43.996Z,1.48
2023-03-11T11:56:10.612Z,1.33
2023-03-11T11:58:40.947Z,1.25
2023-03-11T12:01:14.753Z,1.63
2023-03-11T12:03:57.954Z,1.73
2023-03-11T12:06:39.105Z,1.71
2023-03-11T12:09:30.055Z,1.79
2023-03-11T12:12:25.570Z,1.63
2023-03-11T12:15:11.353Z,1.67
2023-03-11T12:17:43.799Z,1.45
2023-03-11T12:20:20.890Z,1.42
2023-03-11T12:23:08.873Z,1.49
2023-03-11T12:25:45.585Z,2.04
2023-03-11T12:28:21.158Z,1.65
2023-03-11T12:30:56.254Z,1.65
2023-03-11T12:33:43.485Z,1.49
2023-03-11T12:36:32.258Z,1.50
2023-03-11T12:39:02.001Z,1.57
2023-03-11T12:41:42.730Z,1.53
2023-03-11T12:44:24.332Z,1.66
2023-03-11T12:47:01.505Z,1.48
2023-03-11T12:49:46.076Z,1.58
2023-03-11T12:52:13.217Z,1.33
2023-03-11T12:54:56.313Z,1.42
2023-03-11T12:57:44.558Z,1.50
2023-03-11T13:00:53.908Z,1.51
2023-03-11T13:03:46.104Z,1.39
2023-03-11T13:06:30.430Z,1.44
2023-03-11T13:08:59.247Z,1.53
2023-03-11T13:11:28.925Z,1.26
2023-03-11T13:14:16.190Z,1.35
2023-03-11T13:16:44.876Z,1.41
2023-03-11T13:19:26.534Z,1.69
2023-03-11T13:21:56.234Z,1.40
2023-03-11T13:24:22.762Z,1.42
2023-03-11T13:26:54.360Z,1.24
2023-03-11T13:29:36.872Z,1.01
2023-03-11T13:33:01.866Z,1.06
2023-03-11T13:35:57.135Z,1.12
2023-03-11T13:38:42.403Z,1.21
2023-03-11T13:41:23.849Z,1.40
2023-03-11T13:43:52.154Z,1.38
2023-03-11T13:46:52.998Z,1.09
2023-03-11T13:49:43.480Z,1.18
2023-03-11T13:52:18.585Z,0.97
2023-03-11T13:54:51.530Z,1.07
2023-03-11T13:57:26.613Z,1.07
2023-03-11T13:59:55.246Z,1.11
2023-03-11T14:02:27.231Z,1.56
2023-03-11T14:05:17.423Z,1.13
2023-03-11T14:07:44.050Z,0.98
2023-03-11T14:10:19.392Z,1.01
2023-03-11T14:12:46.869Z,1.28
2023-03-11T14:15:24.786Z,1.21
2023-03-11T14:17:53.295Z,1.25
2023-03-11T14:20:25.186Z,1.03
2023-03-11T14:22:55.125Z,1.07
2023-03-11T14:25:27.842Z,0.97
2023-03-11T14:28:05.777Z,1.04
2023-03-11T14:30:34.597Z,0.85
2023-03-11T14:33:01.266Z,1.02
2023-03-11T14:35:28.791Z,1.07
2023-03-11T14:37:55.924Z,0.89
2023-03-11T14:40:32.702Z,0.99
2023-03-11T14:43:03.678Z,1.00
2023-03-11T14:45:36.309Z,1.21
2023-03-11T14:48:12.291Z,1.12
2023-03-11T14:50:39.151Z,1.13
2023-03-11T14:53:12.225Z,1.50
2023-03-11T14:55:57.717Z,1.41
2023-03-11T14:58:29.291Z,1.54
2023-03-11T15:00:58.814Z,1.27
2023-03-11T15:03:31.595Z,1.38
2023-03-11T15:06:04.073Z,1.20
2023-03-11T15:08:36.461Z,1.31
2023-03-11T15:11:12.291Z,1.13
2023-03-11T15:13:41.622Z,1.11
2023-03-11T15:16:22.085Z,1.43
2023-03-11T15:18:48.769Z,1.34
2023-03-11T15:21:18.665Z,1.47
2023-03-11T15:23:48.853Z,1.28
2023-03-11T15:26:23.354Z,1.38
2023-03-11T15:28:55.445Z,1.47
2023-03-11T15:31:21.969Z,1.34
2023-03-11T15:33:51.736Z,1.18
2023-03-11T15:36:33.542Z,1.35
2023-03-11T15:39:14.889Z,1.67
2023-03-11T15:41:44.391Z,1.39
2023-03-11T15:44:26.219Z,1.11
2023-03-11T15:46:53.194Z,1.30
2023-03-11T15:49:20.510Z,1.24
2023-03-11T15:51:47.412Z,1.40
2023-03-11T15:54:13.970Z,1.49
2023-03-11T15:56:41.642Z,1.56
2023-03-11T15:59:15.068Z,1.78
2023-03-11T16:01:41.917Z,2.13
2023-03-11T16:04:16.771Z,2.61
2023-03-11T16:06:44.545Z,2.97
2023-03-11T16:09:12.641Z,3.34
2023-03-11T16:11:40.887Z,2.72
2023-03-11T16:14:16.041Z,1.58
2023-03-11T16:16:44.331Z,1.83
2023-03-11T16:19:11.568Z,1.78
2023-03-11T16:21:46.755Z,1.51
2023-03-11T16:24:20.803Z,1.71
2023-03-11T16:26:47.552Z,1.87
2023-03-11T16:29:19.474Z,2.49
2023-03-11T16:31:46.787Z,2.51
2023-03-11T16:34:13.420Z,1.98
2023-03-11T16:36:40.023Z,1.97
2023-03-11T16:39:06.795Z,1.79
2023-03-11T16:41:51.356Z,1.70
2023-03-11T16:44:17.985Z,1.45
2023-03-11T16:46:44.641Z,1.35
2023-03-11T16:49:11.327Z,1.34
2023-03-11T16:51:37.901Z,1.39
2023-03-11T16:54:04.747Z,1.83
2023-03-11T16:56:41.634Z,2.34
2023-03-11T16:59:08.961Z,2.95
2023-03-11T17:01:38.481Z,4.09
2023-03-11T17:04:08.658Z,1.86
2023-03-11T17:06:35.336Z,2.49
2023-03-11T17:09:01.968Z,3.01
2023-03-11T17:11:30.628Z,1.80
2023-03-11T17:14:10.150Z,1.73
2023-03-11T17:16:42.712Z,1.65
2023-03-11T17:19:09.395Z,1.81
2023-03-11T17:21:36.073Z,2.00
2023-03-11T17:24:02.653Z,2.13
2023-03-11T17:26:31.353Z,1.85
2023-03-11T17:28:57.929Z,2.11
2023-03-11T17:31:24.616Z,1.93
2023-03-11T17:33:51.303Z,1.88
2023-03-11T17:36:18.731Z,1.69
2023-03-11T17:38:46.695Z,1.77
2023-03-11T17:41:16.727Z,1.97
2023-03-11T17:43:44.696Z,1.64
2023-03-11T17:46:14.530Z,2.11
2023-03-11T17:48:42.009Z,2.60
2023-03-11T17:51:10.891Z,2.33
2023-03-11T17:53:39.060Z,1.91
2023-03-11T17:56:06.799Z,1.85
2023-03-11T17:58:34.069Z,2.07
2023-03-11T18:01:10.754Z,2.23
2023-03-11T18:03:37.452Z,1.98
2023-03-11T18:06:06.394Z,2.70
2023-03-11T18:08:35.255Z,3.22
2023-03-11T18:11:05.736Z,3.52
2023-03-11T18:13:34.112Z,2.94
2023-03-11T18:16:04.265Z,2.84
2023-03-11T18:18:31.981Z,4.94
2023-03-11T18:21:08.141Z,8.35
2023-03-11T18:23:35.646Z,5.38
2023-03-11T18:26:04.561Z,9.18
2023-03-11T18:28:31.924Z,11.06
2023-03-11T18:31:06.085Z,10.27
2023-03-11T18:33:32.822Z,18.08
2023-03-11T18:35:59.434Z,13.24
2023-03-11T18:38:26.025Z,11.94
2023-03-11T18:40:58.443Z,10.55
2023-03-11T18:43:25.030Z,9.57
2023-03-11T18:45:51.650Z,10.32
2023-03-11T18:48:18.276Z,10.88
2023-03-11T18:50:51.771Z,12.74
2023-03-11T18:53:18.441Z,15.00
2023-03-11T18:55:45.053Z,15.85
2023-03-11T18:58:11.658Z,21.16
2023-03-11T19:00:38.278Z,20.30
2023-03-11T19:03:04.983Z,20.25
2023-03-11T19:05:31.546Z,18.17
2023-03-11T19:07:58.126Z,18.80
2023-03-11T19:10:24.788Z,17.21
2023-03-11T19:12:51.731Z,15.39
2023-03-11T19:15:18.409Z,14.63
2023-03-11T19:17:51.696Z,12.87
2023-03-11T19:20:22.756Z,12.32
2023-03-11T19:22:49.347Z,11.59
2023-03-11T19:25:16.018Z,12.15
2023-03-11T19:27:42.652Z,12.40
2023-03-11T19:30:09.801Z,11.21
2023-03-11T19:32:36.458Z,12.06
2023-03-11T19:35:03.121Z,10.60
2023-03-11T19:37:30.686Z,9.88
2023-03-11T19:39:57.316Z,9.21
2023-03-11T19:42:23.943Z,9.32
2023-03-11T19:44:50.546Z,9.33
2023-03-11T19:47:17.167Z,9.73
2023-03-11T19:49:43.849Z,9.46
2023-03-11T19:52:11.139Z,9.17
2023-03-11T19:54:37.740Z,8.24
2023-03-11T19:57:04.451Z,7.23
2023-03-11T19:59:31.644Z,8.54
2023-03-11T20:01:58.416Z,9.08
2023-03-11T20:04:25.273Z,7.61
2023-03-11T20:06:51.967Z,8.47
2023-03-11T20:09:18.939Z,8.33
2023-03-11T20:11:45.783Z,9.04
2023-03-11T20:14:13.216Z,9.00
2023-03-11T20:16:40.394Z,8.38
2023-03-11T20:19:07.653Z,9.15
2023-03-11T20:21:38.891Z,12.63
2023-03-11T20:24:05.711Z,13.90
2023-03-11T20:26:32.532Z,11.36
2023-03-11T20:28:59.677Z,9.47
2023-03-11T20:31:27.690Z,9.42
2023-03-11T20:33:56.052Z,7.92
2023-03-11T20:36:26.132Z,7.56
2023-03-11T20:38:55.036Z,12.46
2023-03-11T20:41:23.371Z,11.78
2023-03-11T20:43:55.692Z,11.60
2023-03-11T20:46:22.856Z,10.41
2023-03-11T20:48:49.511Z,9.06
2023-03-11T20:51:20.419Z,10.88
2023-03-11T20:53:47.842Z,10.66
2023-03-11T20:56:18.618Z,9.85
2023-03-11T20:58:48.514Z,11.27
2023-03-11T21:01:18.946Z,14.25
2023-03-11T21:03:45.914Z,13.86
2023-03-11T21:06:18.344Z,12.31
2023-03-11T21:08:46.147Z,11.89
2023-03-11T21:11:13.814Z,8.90
2023-03-11T21:13:41.030Z,7.08
2023-03-11T21:16:09.347Z,6.42
2023-03-11T21:18:36.204Z,6.07
2023-03-11T21:21:04.227Z,6.45
2023-03-11T21:23:30.857Z,7.80
2023-03-11T21:26:01.765Z,13.66
2023-03-11T21:28:28.622Z,16.38
2023-03-11T21:30:59.899Z,11.88
2023-03-11T21:33:26.956Z,10.21
2023-03-11T21:35:58.633Z,10.12
2023-03-11T21:38:26.229Z,9.33
2023-03-11T21:40:53.907Z,8.23
2023-03-11T21:43:21.171Z,7.05
2023-03-11T21:45:47.926Z,6.77
2023-03-11T21:48:14.675Z,6.31
2023-03-11T21:50:41.986Z,6.41
2023-03-11T21:53:08.702Z,6.03
2023-03-11T21:55:35.340Z,6.27
2023-03-11T21:58:01.918Z,5.78
2023-03-11T22:00:28.691Z,5.85
2023-03-11T22:02:55.360Z,5.38
2023-03-11T22:05:22.376Z,5.54
2023-03-11T22:07:49.001Z,5.77
2023-03-11T22:10:15.857Z,6.19
2023-03-11T22:12:42.714Z,5.77
2023-03-11T22:15:10.044Z,6.10
2023-03-11T22:17:36.834Z,6.08
2023-03-11T22:20:08.119Z,6.55
2023-03-11T22:22:34.822Z,5.90
2023-03-11T22:25:01.742Z,7.15
2023-03-11T22:27:28.368Z,7.09
2023-03-11T22:29:55.053Z,7.06
2023-03-11T22:32:21.648Z,7.64
2023-03-11T22:34:48.455Z,7.98
2023-03-11T22:37:15.103Z,7.64
2023-03-11T22:39:41.761Z,7.46
2023-03-11T22:42:08.430Z,9.38
2023-03-11T22:44:35.067Z,8.19
2023-03-11T22:47:01.781Z,7.78
2023-03-11T22:49:28.469Z,7.16
2023-03-11T22:51:55.101Z,7.29
2023-03-11T22:54:21.726Z,7.88
2023-03-11T22:56:48.392Z,8.41
2023-03-11T22:59:15.020Z,9.13
2023-03-11T23:01:41.649Z,9.91
2023-03-11T23:04:08.341Z,9.00
2023-03-11T23:06:34.935Z,9.87
2023-03-11T23:09:02.973Z,10.63
2023-03-11T23:11:29.778Z,11.21
2023-03-11T23:13:56.902Z,11.89
2023-03-11T23:16:26.004Z,12.04
2023-03-11T23:18:55.228Z,13.02
2023-03-11T23:21:28.401Z,13.84
2023-03-11T23:23:56.222Z,15.19
2023-03-11T23:26:23.742Z,17.60
2023-03-11T23:28:53.699Z,17.85
2023-03-11T23:31:22.852Z,19.18
2023-03-11T23:33:50.043Z,21.28
2023-03-11T23:36:20.215Z,23.50
2023-03-11T23:38:47.548Z,21.76
2023-03-11T23:41:18.059Z,19.58
2023-03-11T23:43:44.986Z,17.93
2023-03-11T23:46:11.694Z,20.36
2023-03-11T23:48:39.034Z,19.04
2023-03-11T23:51:05.749Z,19.07
2023-03-11T23:53:32.846Z,17.60
2023-03-11T23:55:59.534Z,16.28
2023-03-11T23:58:26.239Z,16.77
